Terminal Aerodrome Forecast
Issued by NWS

Home | Current Version | Previous Version | Text Only | Print | Product List | Glossary On
Versions: 1 2 3 4 5 6 7 8 9 10 11 12 13 14 15 16 17 18 19 20 21 22 23 24 25
578
FTUS43 KEAX 262326
TAFSTJ
TAF
KSTJ 262326Z 2700/2724 13012G21KT P6SM VCTS FEW050CB
     FM270300 13009KT 4SM TSRA BKN025CB
      TEMPO 2705/2707 VRB20G40KT 1SM +TSRA OVC015CB
     FM271000 12013KT P6SM VCTS BKN035CB
     FM271400 15013G20KT P6SM SCT040=

USA.gov is the U.S. government's official web portal to all federal, state and local government web resources and services.